Time;durP1;ratioP1;P1;durP2;ratioP2;P2;SDS_P1;SDS_P2;PMS_P1;PMS_P2;Temp;Humidity;BMP_temperature;BMP_pressure;BME280_temperature;BME280_humidity;BME280_pressure;Samples;Min_cycle;Max_cycle;Signal;HPM_P1;HPM_P2
2023/05/28 00:01:08;;;;;;;6.50;4.13;;;8.60;1.00;;;;;;6120069;23;20522;-80
2023/05/28 00:03:35;;;;;;;9.00;4.40;;;8.80;99.90;;;;;;6145887;23;20604;-82
2023/05/28 00:06:01;;;;;;;5.37;3.90;;;9.00;1.00;;;;;;6119303;23;20626;-82
2023/05/28 00:08:27;;;;;;;5.67;3.63;;;9.00;1.00;;;;;;6119720;23;20294;-84
2023/05/28 00:10:59;;;;;;;6.85;4.10;;;9.10;1.00;;;;;;6117731;23;20491;-81
2023/05/28 00:13:26;;;;;;;5.37;3.73;;;9.00;1.00;;;;;;6119686;23;20158;-80
2023/05/28 00:15:52;;;;;;;5.80;3.80;;;9.00;1.00;;;;;;6119026;23;20167;-82
2023/05/28 00:18:17;;;;;;;6.40;3.97;;;9.10;1.00;;;;;;6119795;23;20159;-79
2023/05/28 00:20:43;;;;;;;5.93;4.23;;;9.20;1.00;;;;;;6119394;23;20194;-80
2023/05/28 00:23:08;;;;;;;6.23;4.20;;;9.50;99.90;;;;;;6146321;23;20159;-82
2023/05/28 00:25:34;;;;;;;6.40;4.60;;;9.60;99.90;;;;;;6145397;23;20206;-86
2023/05/28 00:27:59;;;;;;;9.10;4.70;;;9.60;99.90;;;;;;6119725;23;20172;-80
2023/05/28 00:30:25;;;;;;;6.73;4.03;;;9.40;99.90;;;;;;6145782;23;20233;-82
2023/05/28 00:32:50;;;;;;;4.57;3.70;;;9.40;99.90;;;;;;6119983;23;20155;-82
2023/05/28 00:35:16;;;;;;;6.33;4.37;;;9.30;99.90;;;;;;6119577;23;20238;-80
2023/05/28 00:37:42;;;;;;;6.43;3.80;;;9.30;99.90;;;;;;6119350;23;20172;-80
2023/05/28 00:40:08;;;;;;;7.33;4.13;;;9.40;99.90;;;;;;6146085;23;20182;-83
2023/05/28 00:42:33;;;;;;;5.97;3.90;;;9.50;99.90;;;;;;6119318;23;20667;-81
2023/05/28 00:45:00;;;;;;;4.80;3.73;;;9.50;99.90;;;;;;6119538;23;20164;-83
2023/05/28 00:47:26;;;;;;;5.33;3.63;;;9.60;99.90;;;;;;6119436;23;20167;-80
2023/05/28 00:49:55;;;;;;;3.90;3.47;;;9.50;99.90;;;;;;6120423;23;20184;-80
2023/05/28 00:52:21;;;;;;;5.37;4.20;;;9.50;99.90;;;;;;6119688;23;20282;-80
2023/05/28 00:54:48;;;;;;;8.00;4.30;;;9.60;99.90;;;;;;6145492;23;20156;-79
2023/05/28 00:57:14;;;;;;;6.23;4.47;;;9.50;99.90;;;;;;6145513;23;20222;-85
2023/05/28 00:59:42;;;;;;;6.10;4.47;;;9.20;99.90;;;;;;6120245;23;20257;-80
2023/05/28 01:02:08;;;;;;;7.60;4.77;;;9.00;99.90;;;;;;6145705;23;20159;-81
2023/05/28 01:04:34;;;;;;;5.87;4.10;;;8.90;99.90;;;;;;6119854;23;20168;-83
2023/05/28 01:07:00;;;;;;;6.23;4.27;;;8.90;99.90;;;;;;6119932;23;20199;-82
2023/05/28 01:09:26;;;;;;;6.40;4.30;;;9.00;99.90;;;;;;6119578;23;20187;-81
2023/05/28 01:11:53;;;;;;;6.37;4.30;;;8.90;99.90;;;;;;6119476;23;20294;-80
2023/05/28 01:14:20;;;;;;;6.47;3.83;;;8.70;99.90;;;;;;6119363;23;20242;-83
2023/05/28 01:16:48;;;;;;;5.43;3.80;;;8.50;99.90;;;;;;6119748;23;20210;-80
2023/05/28 01:19:16;;;;;;;8.67;4.43;;;8.30;99.90;;;;;;6119674;23;20183;-80
2023/05/28 01:21:45;;;;;;;6.20;3.70;;;8.10;99.90;;;;;;6119649;23;20167;-80
2023/05/28 01:24:13;;;;;;;5.10;3.63;;;7.90;99.90;;;;;;6119774;23;20168;-82
2023/05/28 01:26:40;;;;;;;5.80;4.33;;;8.00;1.00;;;;;;6119240;23;20460;-81
2023/05/28 01:29:16;;;;;;;4.63;3.40;;;8.20;1.00;;;;;;6120123;23;20215;-80
2023/05/28 01:31:42;;;;;;;7.03;4.00;;;8.40;1.00;;;;;;6119913;23;20214;-80
2023/05/28 01:34:10;;;;;;;4.67;3.57;;;8.60;1.00;;;;;;6145659;23;20600;-81
2023/05/28 01:36:42;;;;;;;5.13;3.97;;;8.80;1.00;;;;;;6145953;23;20164;-80
2023/05/28 01:39:08;;;;;;;5.40;3.57;;;8.80;99.90;;;;;;6119762;23;20164;-85
2023/05/28 01:41:35;;;;;;;4.57;3.53;;;8.90;99.90;;;;;;6119692;23;20674;-80
2023/05/28 01:44:01;;;;;;;5.60;3.50;;;8.80;99.90;;;;;;6119809;23;20168;-82
2023/05/28 01:46:28;;;;;;;4.77;3.73;;;8.10;99.90;;;;;;6145605;23;20268;-84
2023/05/28 01:48:54;;;;;;;5.23;3.20;;;8.60;99.90;;;;;;6119774;23;20250;-80
2023/05/28 01:51:24;;;;;;;4.30;3.13;;;8.60;99.90;;;;;;6119598;23;20195;-81
2023/05/28 01:53:50;;;;;;;5.33;3.50;;;8.40;99.90;;;;;;6145388;23;20160;-82
2023/05/28 01:56:16;;;;;;;3.90;3.43;;;8.40;99.90;;;;;;6145723;23;20156;-85
2023/05/28 01:58:42;;;;;;;6.93;3.40;;;8.30;99.90;;;;;;6147778;23;20151;-82
2023/05/28 02:01:15;;;;;;;4.97;3.40;;;8.20;99.90;;;;;;6148052;23;20179;-80
2023/05/28 02:03:41;;;;;;;6.43;4.07;;;7.90;99.90;;;;;;6147657;23;20470;-80
2023/05/28 02:06:06;;;;;;;4.77;3.70;;;7.80;99.90;;;;;;6147629;23;20211;-80
2023/05/28 02:08:32;;;;;;;5.57;3.50;;;7.80;99.90;;;;;;6147746;23;20187;-82
2023/05/28 02:10:57;;;;;;;4.40;3.27;;;7.80;99.90;;;;;;6121467;23;20218;-83
2023/05/28 02:13:23;;;;;;;5.40;3.57;;;8.00;99.90;;;;;;6147535;23;20488;-80
2023/05/28 02:15:48;;;;;;;4.07;3.50;;;8.10;99.90;;;;;;6121646;23;20159;-80
2023/05/28 02:18:14;;;;;;;4.90;3.20;;;7.80;99.90;;;;;;6147628;23;20952;-80
2023/05/28 02:20:42;;;;;;;5.77;3.67;;;7.70;99.90;;;;;;6147491;23;20313;-80
2023/05/28 02:23:07;;;;;;;6.97;3.50;;;7.70;99.90;;;;;;6147912;23;20166;-80
2023/05/28 02:25:33;;;;;;;4.67;3.07;;;7.80;1.00;;;;;;6120850;23;20620;-80
2023/05/28 02:27:59;;;;;;;4.43;3.60;;;7.60;99.90;;;;;;6121036;23;20160;-84
2023/05/28 02:30:24;;;;;;;4.20;3.43;;;7.80;1.00;;;;;;6121027;23;20186;-80
2023/05/28 02:32:50;;;;;;;4.83;3.30;;;8.00;1.00;;;;;;6121264;23;20195;-81
2023/05/28 02:35:16;;;;;;;3.87;3.47;;;8.10;1.00;;;;;;6121192;23;20190;-81
2023/05/28 02:37:42;;;;;;;4.30;3.17;;;8.30;1.00;;;;;;6121045;23;20195;-80
2023/05/28 02:40:09;;;;;;;5.07;3.50;;;8.40;1.00;;;;;;6120851;23;20531;-81
2023/05/28 02:42:35;;;;;;;3.77;2.87;;;8.40;99.90;;;;;;6147130;23;20144;-80
2023/05/28 02:45:00;;;;;;;3.73;3.20;;;8.50;99.90;;;;;;6121301;23;20625;-81
2023/05/28 02:47:26;;;;;;;4.07;3.23;;;8.50;99.90;;;;;;6146843;23;20592;-80
2023/05/28 02:49:51;;;;;;;4.23;3.40;;;8.50;99.90;;;;;;6121005;23;20659;-82
2023/05/28 02:52:17;;;;;;;4.90;2.67;;;8.30;99.90;;;;;;6121011;23;20207;-83
2023/05/28 02:54:42;;;;;;;2.93;2.40;;;8.00;99.90;;;;;;6121087;23;20193;-84
2023/05/28 02:57:08;;;;;;;3.07;2.40;;;7.60;99.90;;;;;;6120785;23;20167;-81
2023/05/28 02:59:34;;;;;;;2.80;2.60;;;7.30;99.90;;;;;;6120917;23;20262;-80
2023/05/28 03:02:00;;;;;;;4.50;2.77;;;7.00;99.90;;;;;;6121113;23;20167;-85
2023/05/28 03:04:25;;;;;;;3.57;2.70;;;6.90;99.90;;;;;;6147193;23;20179;-83
2023/05/28 03:06:51;;;;;;;3.57;2.80;;;7.00;99.90;;;;;;6147508;23;20187;-81
2023/05/28 03:09:17;;;;;;;5.33;2.80;;;7.30;1.00;;;;;;6146867;23;20180;-81
2023/05/28 03:11:42;;;;;;;4.50;2.57;;;7.50;1.00;;;;;;6121142;23;20266;-79
2023/05/28 03:14:08;;;;;;;3.50;2.57;;;7.60;99.90;;;;;;6147328;23;20574;-80
2023/05/28 03:16:36;;;;;;;3.20;2.33;;;7.60;99.90;;;;;;6121079;23;20151;-80
2023/05/28 03:19:02;;;;;;;3.43;2.57;;;7.60;99.90;;;;;;6120997;23;20496;-80
2023/05/28 03:21:28;;;;;;;3.03;2.40;;;7.70;99.90;;;;;;6121037;23;20171;-80
2023/05/28 03:23:53;;;;;;;3.10;2.70;;;7.90;99.90;;;;;;6121489;23;20164;-80
2023/05/28 03:26:19;;;;;;;2.97;2.67;;;8.10;99.90;;;;;;6120738;23;20608;-82
2023/05/28 03:28:45;;;;;;;2.60;2.40;;;8.10;99.90;;;;;;6147515;23;20231;-79
2023/05/28 03:31:12;;;;;;;4.53;2.50;;;8.10;99.90;;;;;;6120795;23;20274;-79
2023/05/28 03:33:37;;;;;;;3.10;2.70;;;8.00;99.90;;;;;;6121361;23;20166;-81
2023/05/28 03:36:03;;;;;;;3.17;2.53;;;7.90;99.90;;;;;;6120780;23;20159;-83
2023/05/28 03:38:29;;;;;;;3.27;2.50;;;7.80;99.90;;;;;;6120968;23;20182;-84
2023/05/28 03:40:55;;;;;;;4.70;2.50;;;7.80;99.90;;;;;;6147671;23;20179;-80
2023/05/28 03:43:20;;;;;;;3.63;2.50;;;8.00;99.90;;;;;;6121118;23;20178;-84
2023/05/28 03:45:46;;;;;;;2.37;2.17;;;8.20;99.90;;;;;;6147345;23;20156;-80
2023/05/28 03:48:11;;;;;;;2.57;2.23;;;8.30;99.90;;;;;;6120722;23;20163;-82
2023/05/28 03:50:37;;;;;;;2.60;2.40;;;8.40;99.90;;;;;;6121143;23;20186;-79
2023/05/28 03:53:02;;;;;;;2.50;2.10;;;8.50;99.90;;;;;;6147548;23;20148;-80
2023/05/28 03:55:28;;;;;;;2.40;2.20;;;8.30;75.30;;;;;;6121397;23;20192;-81
2023/05/28 03:57:54;;;;;;;3.10;2.20;;;8.30;81.90;;;;;;6120518;23;20167;-82
2023/05/28 04:00:19;;;;;;;3.57;2.50;;;8.30;99.90;;;;;;6120747;23;20242;-80
2023/05/28 04:02:46;;;;;;;3.37;2.50;;;8.20;60.50;;;;;;6120591;23;20600;-80
2023/05/28 04:05:11;;;;;;;2.50;2.30;;;7.90;51.80;;;;;;6120711;23;20172;-80
2023/05/28 04:07:37;;;;;;;3.20;2.37;;;7.80;82.30;;;;;;6120798;23;20608;-80
2023/05/28 04:10:03;;;;;;;3.23;2.47;;;7.60;63.70;;;;;;6120914;23;20282;-83
2023/05/28 04:12:28;;;;;;;2.73;2.10;;;7.60;98.10;;;;;;6147150;23;20190;-80
2023/05/28 04:14:55;;;;;;;2.80;1.97;;;7.80;99.90;;;;;;6120530;23;20155;-82
2023/05/28 04:17:21;;;;;;;2.33;2.10;;;8.00;99.90;;;;;;6147070;23;20481;-81
2023/05/28 04:19:46;;;;;;;3.00;2.30;;;8.20;99.90;;;;;;6119540;23;20200;-80
2023/05/28 04:22:12;;;;;;;2.77;2.20;;;8.50;99.90;;;;;;6120335;23;20663;-79
2023/05/28 04:24:37;;;;;;;2.47;2.27;;;8.60;96.50;;;;;;6120465;23;20582;-81
2023/05/28 04:27:03;;;;;;;2.57;2.10;;;8.80;97.30;;;;;;6120233;23;20642;-82
2023/05/28 04:29:29;;;;;;;2.50;2.20;;;9.00;99.90;;;;;;6120661;23;20180;-81
2023/05/28 04:31:57;;;;;;;2.60;2.10;;;9.20;99.90;;;;;;6120541;23;20537;-82
2023/05/28 04:34:25;;;;;;;3.10;2.80;;;9.20;64.00;;;;;;6147394;23;20501;-82
2023/05/28 04:36:51;;;;;;;2.93;2.60;;;9.30;49.00;;;;;;6120359;23;20183;-80
2023/05/28 04:39:18;;;;;;;3.20;2.20;;;9.30;27.50;;;;;;6146890;23;20171;-82
2023/05/28 04:41:45;;;;;;;4.47;2.80;;;9.40;37.90;;;;;;6147364;23;20160;-81
2023/05/28 04:44:15;;;;;;;3.13;2.37;;;9.40;22.40;;;;;;6147096;23;20155;-80
2023/05/28 04:46:43;;;;;;;4.53;2.47;;;9.60;21.40;;;;;;6146625;23;20210;-80
2023/05/28 04:49:10;;;;;;;3.00;2.30;;;9.80;7.20;;;;;;6120433;23;20612;-80
2023/05/28 04:51:37;;;;;;;3.60;2.27;;;9.90;1.00;;;;;;6120401;23;20191;-84
2023/05/28 04:54:03;;;;;;;3.07;2.30;;;10.00;1.00;;;;;;6146904;23;20302;-80
2023/05/28 04:56:28;;;;;;;3.60;2.60;;;10.10;1.00;;;;;;6120361;23;20681;-81
2023/05/28 04:58:54;;;;;;;2.77;2.30;;;10.40;1.00;;;;;;6120851;23;20208;-83
2023/05/28 05:01:20;;;;;;;3.70;2.50;;;11.50;1.00;;;;;;6146307;23;20485;-80
2023/05/28 05:03:46;;;;;;;2.95;2.25;;;12.90;99.90;;;;;;6120553;23;20166;-80
2023/05/28 05:06:12;;;;;;;3.28;2.42;;;14.20;99.90;;;;;;6119427;23;20156;-80
2023/05/28 05:08:37;;;;;;;2.90;2.45;;;15.50;99.90;;;;;;6119660;23;20174;-81
2023/05/28 05:11:04;;;;;;;3.15;2.42;;;16.30;99.90;;;;;;6145097;23;20187;-80
2023/05/28 05:13:30;;;;;;;2.80;2.55;;;16.90;99.90;;;;;;6119452;23;20166;-84
2023/05/28 05:15:55;;;;;;;2.83;2.38;;;17.20;99.90;;;;;;6145358;23;20147;-80
2023/05/28 05:18:21;;;;;;;3.33;2.50;;;17.50;1.00;;;;;;6145244;23;20155;-82
2023/05/28 05:20:46;;;;;;;2.33;2.08;;;17.90;99.90;;;;;;6145987;23;20227;-84
2023/05/28 05:23:12;;;;;;;4.43;2.60;;;18.50;99.90;;;;;;6119355;23;20160;-81
2023/05/28 05:25:37;;;;;;;3.63;2.63;;;19.00;99.90;;;;;;6119789;23;20156;-81
2023/05/28 05:28:03;;;;;;;3.33;2.50;;;19.70;99.90;;;;;;6119699;23;20218;-80
2023/05/28 05:30:29;;;;;;;3.53;2.42;;;20.00;1.00;;;;;;6119699;23;20180;-80
2023/05/28 05:32:55;;;;;;;2.92;2.30;;;20.40;99.90;;;;;;6119792;23;20160;-82
2023/05/28 05:35:20;;;;;;;3.83;2.50;;;20.70;99.90;;;;;;6119726;23;20163;-83
2023/05/28 05:37:46;;;;;;;2.42;2.22;;;21.50;99.90;;;;;;6119994;23;20206;-81
2023/05/28 05:40:12;;;;;;;2.42;2.22;;;21.50;99.90;;;;;;6120337;23;20607;-81
2023/05/28 05:42:38;;;;;;;2.53;2.30;;;21.50;99.90;;;;;;6120291;23;20897;-80
2023/05/28 05:45:05;;;;;;;2.30;2.00;;;22.00;1.00;;;;;;6145940;23;20574;-84
2023/05/28 05:47:31;;;;;;;2.90;2.17;;;22.10;1.00;;;;;;6120158;23;20511;-80
2023/05/28 05:49:57;;;;;;;2.47;2.20;;;22.90;1.00;;;;;;6120414;23;20206;-83
2023/05/28 05:52:23;;;;;;;2.47;2.28;;;23.00;1.00;;;;;;6120181;23;20198;-82
2023/05/28 05:54:48;;;;;;;2.60;2.35;;;23.30;1.00;;;;;;6119945;23;20167;-81
2023/05/28 05:57:14;;;;;;;2.72;2.25;;;23.50;1.00;;;;;;6119884;23;20163;-85
2023/05/28 05:59:40;;;;;;;2.28;2.08;;;23.20;1.00;;;;;;6120021;23;20195;-80
2023/05/28 06:02:06;;;;;;;3.58;2.65;;;23.50;99.90;;;;;;6119509;23;20664;-82
2023/05/28 06:04:33;;;;;;;2.67;2.40;;;23.90;88.90;;;;;;6119750;23;20155;-81
2023/05/28 06:07:03;;;;;;;2.30;2.10;;;23.80;99.90;;;;;;6119921;23;20615;-83
2023/05/28 06:09:30;;;;;;;2.30;2.10;;;24.30;1.00;;;;;;6119751;23;20659;-81
2023/05/28 06:11:56;;;;;;;2.28;1.77;;;24.50;1.00;;;;;;6145381;23;20183;-87
2023/05/28 06:14:21;;;;;;;2.70;2.45;;;25.50;1.00;;;;;;6120011;23;20163;-82
2023/05/28 06:16:47;;;;;;;2.85;2.10;;;26.30;99.90;;;;;;6146140;23;20155;-81
2023/05/28 06:19:13;;;;;;;2.85;2.60;;;26.50;1.00;;;;;;6146211;23;20176;-81
2023/05/28 06:21:38;;;;;;;3.33;3.03;;;27.00;11.10;;;;;;6146183;23;20500;-80
2023/05/28 06:24:04;;;;;;;3.97;2.70;;;27.10;1.00;;;;;;6120307;23;20156;-82
2023/05/28 06:26:29;;;;;;;3.30;2.53;;;27.50;99.90;;;;;;6120353;23;20548;-87
2023/05/28 06:28:55;;;;;;;3.30;2.65;;;27.70;36.10;;;;;;6146415;23;20152;-84
2023/05/28 06:31:20;;;;;;;3.17;2.67;;;28.40;99.90;;;;;;6146056;23;20180;-81
2023/05/28 06:33:46;;;;;;;3.13;2.60;;;28.40;99.90;;;;;;6146544;23;20207;-82
2023/05/28 06:36:12;;;;;;;4.00;3.33;;;28.70;99.90;;;;;;6120564;23;20290;-81
2023/05/28 06:38:38;;;;;;;4.47;3.35;;;28.90;99.90;;;;;;6119934;23;20195;-82
2023/05/28 06:41:03;;;;;;;4.57;3.45;;;29.10;1.00;;;;;;6119833;23;20184;-81
2023/05/28 06:43:29;;;;;;;4.20;3.17;;;29.20;1.00;;;;;;6147152;23;20654;-81
2023/05/28 06:45:54;;;;;;;5.15;3.28;;;29.60;44.90;;;;;;6121799;23;20560;-81
2023/05/28 06:48:20;;;;;;;3.20;2.78;;;28.50;99.90;;;;;;6147858;23;20171;-85
2023/05/28 06:50:46;;;;;;;3.67;2.83;;;29.90;99.90;;;;;;6121523;23;20570;-81
2023/05/28 06:53:12;;;;;;;5.13;3.40;;;30.40;1.00;;;;;;6122018;23;20164;-81
2023/05/28 06:55:37;;;;;;;3.30;3.00;;;30.70;1.00;;;;;;6123758;23;20171;-83
2023/05/28 06:58:03;;;;;;;3.70;3.40;;;30.60;1.00;;;;;;6147407;23;20235;-81
2023/05/28 07:00:29;;;;;;;4.45;3.20;;;30.20;99.90;;;;;;6122144;23;20730;-81
2023/05/28 07:02:54;;;;;;;3.75;3.20;;;29.70;1.00;;;;;;6121374;23;20623;-80
2023/05/28 07:05:20;;;;;;;3.40;3.10;;;30.30;1.00;;;;;;6148262;23;20247;-81
2023/05/28 07:07:45;;;;;;;3.20;2.85;;;30.50;1.00;;;;;;6147916;23;20156;-82
2023/05/28 07:10:11;;;;;;;3.03;2.55;;;31.10;99.90;;;;;;6121749;23;20216;-87
2023/05/28 07:12:37;;;;;;;5.10;4.50;;;30.80;1.00;;;;;;6147540;23;20222;-81
2023/05/28 07:15:04;;;;;;;4.65;3.10;;;29.80;1.00;;;;;;6121830;23;20487;-84
2023/05/28 07:17:29;;;;;;;4.22;3.05;;;30.30;1.00;;;;;;6121175;23;20624;-81
2023/05/28 07:19:55;;;;;;;3.22;2.92;;;30.10;1.00;;;;;;6121212;23;20180;-81
2023/05/28 07:22:20;;;;;;;3.55;3.08;;;29.90;1.00;;;;;;6121634;23;20546;-80
2023/05/28 07:24:46;;;;;;;3.88;3.00;;;29.20;1.00;;;;;;6121427;23;20163;-81
2023/05/28 07:27:11;;;;;;;3.08;2.72;;;27.70;1.00;;;;;;6147596;23;20160;-81
2023/05/28 07:29:37;;;;;;;4.03;3.05;;;26.30;1.00;;;;;;6121188;23;20326;-81
2023/05/28 07:32:03;;;;;;;3.67;2.83;;;24.50;1.00;;;;;;6121515;23;20314;-82
2023/05/28 07:34:28;;;;;;;5.07;2.95;;;23.00;99.90;;;;;;6147146;23;20218;-80
2023/05/28 07:36:54;;;;;;;4.25;2.83;;;21.90;99.90;;;;;;6120789;23;20182;-80
2023/05/28 07:39:19;;;;;;;5.53;2.70;;;21.20;99.90;;;;;;6120497;23;20190;-81
2023/05/28 07:41:45;;;;;;;3.20;2.63;;;20.70;99.90;;;;;;6120833;23;20486;-82
2023/05/28 07:44:11;;;;;;;3.50;2.40;;;20.60;99.90;;;;;;6120622;23;20206;-81
2023/05/28 07:46:37;;;;;;;3.58;2.45;;;20.30;99.90;;;;;;6120037;23;20167;-83
2023/05/28 07:49:02;;;;;;;3.80;2.70;;;20.50;99.90;;;;;;6120249;23;20167;-80
2023/05/28 07:51:28;;;;;;;3.15;2.60;;;20.20;99.90;;;;;;6119849;23;20649;-80
2023/05/28 07:53:54;;;;;;;4.65;2.67;;;20.10;99.90;;;;;;6120036;23;20167;-80
2023/05/28 07:56:21;;;;;;;3.20;2.20;;;20.90;99.90;;;;;;6119685;23;20170;-82
2023/05/28 07:58:47;;;;;;;5.07;1.90;;;20.60;99.90;;;;;;6146391;23;20159;-81
2023/05/28 08:01:13;;;;;;;2.58;2.08;;;19.60;99.90;;;;;;6146230;23;20175;-82
2023/05/28 08:03:38;;;;;;;2.00;1.80;;;20.50;99.90;;;;;;6119794;23;20195;-83
2023/05/28 08:06:04;;;;;;;2.67;2.13;;;19.90;99.90;;;;;;6145832;23;20160;-80
2023/05/28 08:08:30;;;;;;;3.60;2.05;;;19.90;99.90;;;;;;6119540;23;20592;-80
2023/05/28 08:10:56;;;;;;;2.58;1.70;;;20.00;1.00;;;;;;6119779;23;20273;-84
2023/05/28 08:13:21;;;;;;;3.80;2.05;;;20.10;99.90;;;;;;6119667;23;20247;-83
2023/05/28 08:15:47;;;;;;;2.63;2.00;;;20.30;99.90;;;;;;6119681;23;20187;-81
2023/05/28 08:18:13;;;;;;;3.10;1.85;;;20.40;99.90;;;;;;6119040;23;20156;-82
2023/05/28 08:20:38;;;;;;;2.15;1.80;;;20.00;99.90;;;;;;6119384;23;20180;-81
2023/05/28 08:23:04;;;;;;;2.55;2.00;;;19.80;99.90;;;;;;6119546;23;20527;-81
2023/05/28 08:25:30;;;;;;;3.47;1.80;;;20.50;99.90;;;;;;6145453;23;20156;-83
2023/05/28 08:27:55;;;;;;;2.40;1.90;;;20.00;99.90;;;;;;6145963;23;20178;-81
2023/05/28 08:30:21;;;;;;;3.30;1.90;;;19.90;99.90;;;;;;6145309;23;20172;-81
2023/05/28 08:32:47;;;;;;;1.92;1.55;;;19.80;99.90;;;;;;6145753;23;20183;-82
2023/05/28 08:35:12;;;;;;;2.53;1.98;;;20.50;99.90;;;;;;6119207;23;20160;-83
2023/05/28 08:37:38;;;;;;;4.03;1.90;;;20.70;99.90;;;;;;6118891;23;20175;-81
2023/05/28 08:40:08;;;;;;;3.78;1.88;;;20.10;99.90;;;;;;6119229;23;20611;-81
2023/05/28 08:42:34;;;;;;;1.90;1.77;;;20.00;99.90;;;;;;6145509;23;20156;-80
2023/05/28 08:45:00;;;;;;;2.83;1.70;;;20.50;99.90;;;;;;6145337;23;20213;-81
2023/05/28 08:47:31;;;;;;;2.30;1.80;;;20.20;99.90;;;;;;6118803;23;20159;-81
2023/05/28 08:49:59;;;;;;;2.05;1.77;;;20.10;99.90;;;;;;6118952;23;20191;-85
2023/05/28 08:52:25;;;;;;;3.95;2.00;;;20.40;99.90;;;;;;6118446;23;20189;-81
2023/05/28 08:54:51;;;;;;;1.60;1.50;;;20.10;1.00;;;;;;6119123;23;20546;-84
2023/05/28 08:57:17;;;;;;;2.95;1.75;;;20.70;99.90;;;;;;6118433;23;20163;-81
2023/05/28 08:59:45;;;;;;;2.28;1.67;;;20.50;99.90;;;;;;6118502;23;20186;-84
2023/05/28 09:02:12;;;;;;;2.47;1.70;;;20.30;99.90;;;;;;6145312;23;20151;-81
2023/05/28 09:04:38;;;;;;;2.88;1.73;;;20.30;99.90;;;;;;6145346;23;20160;-84
2023/05/28 09:07:05;;;;;;;2.55;1.63;;;19.90;99.90;;;;;;6144791;23;20245;-85
2023/05/28 09:09:31;;;;;;;2.28;1.38;;;20.50;1.00;;;;;;6145303;23;20230;-80
2023/05/28 09:12:05;;;;;;;3.60;1.70;;;20.70;1.00;;;;;;6144764;23;20283;-84
2023/05/28 09:14:36;;;;;;;3.28;1.75;;;20.10;1.00;;;;;;6119360;23;20569;-81
2023/05/28 09:17:02;;;;;;;3.10;1.50;;;20.70;1.00;;;;;;6118870;23;20147;-81
2023/05/28 09:19:28;;;;;;;2.13;1.67;;;20.30;1.00;;;;;;6118635;23;20261;-83
2023/05/28 09:21:57;;;;;;;1.90;1.63;;;20.70;1.00;;;;;;6145249;23;20155;-81
2023/05/28 09:24:26;;;;;;;2.58;1.70;;;20.20;1.00;;;;;;6144876;23;20190;-82
2023/05/28 09:26:57;;;;;;;3.90;1.88;;;20.40;1.00;;;;;;6118418;23;20615;-83
2023/05/28 09:29:26;;;;;;;3.13;1.90;;;20.70;1.00;;;;;;6118636;23;20587;-82
2023/05/28 09:32:00;;;;;;;2.65;1.67;;;20.70;1.00;;;;;;6118447;23;20650;-84
2023/05/28 09:34:27;;;;;;;1.55;1.42;;;21.10;1.00;;;;;;6118258;23;20159;-85
2023/05/28 09:36:53;;;;;;;2.65;1.80;;;20.60;1.00;;;;;;6144744;23;20453;-84
2023/05/28 09:39:23;;;;;;;2.60;1.85;;;21.30;1.00;;;;;;6145169;23;20603;-81
2023/05/28 09:42:06;;;;;;;2.30;1.90;;;20.60;1.00;;;;;;6118821;23;20548;-84
2023/05/28 09:44:32;;;;;;;2.38;1.98;;;20.80;1.00;;;;;;6118626;23;20156;-83
2023/05/28 09:46:58;;;;;;;2.70;1.60;;;20.80;1.00;;;;;;6118123;23;20617;-81
2023/05/28 09:49:25;;;;;;;3.33;1.80;;;21.10;1.00;;;;;;6144606;23;20182;-81
2023/05/28 09:51:53;;;;;;;2.78;1.67;;;21.00;1.00;;;;;;6118511;23;20195;-81
2023/05/28 09:54:20;;;;;;;2.70;1.70;;;21.20;1.00;;;;;;6118490;23;20631;-83
2023/05/28 09:56:50;;;;;;;2.58;1.70;;;21.30;99.90;;;;;;6144146;23;20151;-83
2023/05/28 09:59:20;;;;;;;2.33;1.75;;;21.30;99.90;;;;;;6118558;23;20225;-82
2023/05/28 10:01:54;;;;;;;2.95;1.85;;;21.10;99.90;;;;;;6118427;23;20163;-83
2023/05/28 10:04:23;;;;;;;2.90;1.92;;;21.10;1.00;;;;;;6119142;23;20159;-81
2023/05/28 10:06:51;;;;;;;2.38;1.60;;;21.20;1.00;;;;;;6144755;23;20634;-83
2023/05/28 10:09:18;;;;;;;2.13;1.60;;;21.30;1.00;;;;;;6118118;23;20585;-81
2023/05/28 10:11:55;;;;;;;3.65;1.90;;;21.30;1.00;;;;;;6118389;23;20195;-82
2023/05/28 10:14:22;;;;;;;3.83;1.80;;;20.90;1.00;;;;;;6144884;23;20164;-81
2023/05/28 10:16:48;;;;;;;2.17;1.88;;;20.80;1.00;;;;;;6144286;23;20231;-80
2023/05/28 10:19:15;;;;;;;2.75;1.88;;;21.10;1.00;;;;;;6119930;23;20180;-82
2023/05/28 10:21:40;;;;;;;3.28;2.20;;;21.20;1.00;;;;;;6120239;23;20664;-82
2023/05/28 10:24:06;;;;;;;3.58;1.67;;;21.20;1.00;;;;;;6146768;23;20155;-82
2023/05/28 10:26:32;;;;;;;3.17;2.20;;;21.40;1.00;;;;;;6120458;23;20164;-81
2023/05/28 10:28:58;;;;;;;3.20;2.20;;;21.30;99.90;;;;;;6119777;23;20428;-81
2023/05/28 10:31:24;;;;;;;2.55;2.08;;;21.70;1.00;;;;;;6146464;23;20183;-81
2023/05/28 10:33:50;;;;;;;2.47;1.90;;;21.20;99.90;;;;;;6120085;23;20165;-82
2023/05/28 10:36:16;;;;;;;4.13;1.70;;;21.00;99.90;;;;;;6120278;23;20170;-81
2023/05/28 10:38:56;;;;;;;2.63;1.85;;;21.50;99.90;;;;;;6146268;23;20272;-81
2023/05/28 10:41:22;;;;;;;4.22;1.90;;;21.20;99.90;;;;;;6120268;23;20162;-81
2023/05/28 10:43:51;;;;;;;2.90;2.10;;;21.60;1.00;;;;;;6146191;23;20627;-82
2023/05/28 10:46:23;;;;;;;2.67;2.17;;;21.40;1.00;;;;;;6146558;23;20160;-81
2023/05/28 10:49:14;;;;;;;4.95;2.20;;;21.30;99.90;;;;;;6119876;23;20350;-80
2023/05/28 10:51:45;;;;;;;2.78;1.90;;;21.30;99.90;;;;;;6119962;23;20221;-81
2023/05/28 10:54:40;;;;;;;2.08;1.63;;;21.50;99.90;;;;;;6146333;23;20686;-81
2023/05/28 10:57:21;;;;;;;3.65;1.95;;;21.70;99.90;;;;;;6146464;23;20173;-81
2023/05/28 10:59:52;;;;;;;2.67;2.15;;;21.70;99.90;;;;;;6120108;23;20530;-81
2023/05/28 11:02:34;;;;;;;3.20;1.85;;;21.70;99.90;;;;;;6120133;23;20527;-81
2023/05/28 11:05:04;;;;;;;3.33;2.13;;;22.00;99.90;;;;;;6120544;23;20162;-82
2023/05/28 11:07:41;;;;;;;2.60;1.85;;;22.20;99.90;;;;;;6120196;23;20466;-84
2023/05/28 11:10:09;;;;;;;2.42;2.00;;;22.10;99.90;;;;;;6120220;23;20190;-81
2023/05/28 11:12:39;;;;;;;2.70;2.03;;;22.10;99.90;;;;;;6146114;23;20203;-81
2023/05/28 11:15:06;;;;;;;4.07;2.00;;;22.00;99.90;;;;;;6120233;23;20527;-81
2023/05/28 11:17:39;;;;;;;3.78;1.63;;;22.10;99.90;;;;;;6146147;23;20163;-81
2023/05/28 11:20:14;;;;;;;5.78;2.35;;;22.00;99.90;;;;;;6146017;23;20168;-82
2023/05/28 11:22:39;;;;;;;3.30;2.05;;;22.00;99.90;;;;;;6120936;23;20597;-84
2023/05/28 11:25:07;;;;;;;4.32;2.13;;;22.00;99.90;;;;;;6145975;23;20500;-81
2023/05/28 11:27:35;;;;;;;3.70;2.33;;;22.20;99.90;;;;;;6145404;23;20163;-85
2023/05/28 11:30:03;;;;;;;4.22;1.77;;;23.00;99.90;;;;;;6120921;23;20254;-82
2023/05/28 11:32:32;;;;;;;3.25;1.95;;;22.30;99.90;;;;;;6120093;23;20459;-81
2023/05/28 11:34:58;;;;;;;3.08;1.92;;;22.30;99.90;;;;;;6120129;23;20214;-81
2023/05/28 11:37:32;;;;;;;4.22;1.98;;;22.40;99.90;;;;;;6119411;23;20183;-81
2023/05/28 11:39:59;;;;;;;6.35;2.30;;;22.30;99.90;;;;;;6120355;23;20183;-82
2023/05/28 11:42:26;;;;;;;4.25;2.28;;;22.50;99.90;;;;;;6145885;23;20226;-81
2023/05/28 11:44:52;;;;;;;3.30;1.77;;;22.50;1.00;;;;;;6120044;23;20550;-83
2023/05/28 11:47:19;;;;;;;3.53;2.22;;;22.60;99.90;;;;;;6146029;23;20156;-81
2023/05/28 11:49:46;;;;;;;3.53;1.98;;;22.70;99.90;;;;;;6119784;23;20891;-81
2023/05/28 11:52:19;;;;;;;3.90;2.22;;;23.00;1.00;;;;;;6146050;23;20651;-81
2023/05/28 11:54:52;;;;;;;3.58;1.85;;;22.80;1.00;;;;;;6119706;23;20477;-81
2023/05/28 11:57:23;;;;;;;2.85;1.90;;;22.50;99.90;;;;;;6120041;23;20210;-81
2023/05/28 12:00:26;;;;;;;4.32;2.13;;;22.80;99.90;;;;;;6120003;23;20188;-80
2023/05/28 12:02:54;;;;;;;3.22;2.25;;;22.60;99.90;;;;;;6145224;23;20288;-80
2023/05/28 12:05:20;;;;;;;2.15;1.77;;;22.60;99.90;;;;;;6119545;23;20518;-81
2023/05/28 12:07:51;;;;;;;3.85;2.22;;;22.90;99.90;;;;;;6119445;23;20164;-81
2023/05/28 12:10:22;;;;;;;3.42;2.25;;;22.60;99.90;;;;;;6145953;23;20646;-81
2023/05/28 12:12:49;;;;;;;3.25;2.22;;;22.90;99.90;;;;;;6119885;23;20207;-81
2023/05/28 12:15:16;;;;;;;3.80;2.05;;;23.20;99.90;;;;;;6146117;23;20672;-82
2023/05/28 12:17:43;;;;;;;3.45;2.00;;;23.40;99.90;;;;;;6146090;23;20159;-84
2023/05/28 12:20:13;;;;;;;3.35;2.20;;;23.70;99.90;;;;;;6119776;23;20187;-81
2023/05/28 12:22:42;;;;;;;2.63;1.75;;;23.90;99.90;;;;;;6119887;23;20168;-84
2023/05/28 12:25:08;;;;;;;5.28;2.47;;;24.00;99.90;;;;;;6146221;23;20226;-81
2023/05/28 12:27:35;;;;;;;3.05;1.90;;;24.00;99.90;;;;;;6119509;23;20163;-81
2023/05/28 12:30:00;;;;;;;6.50;2.33;;;23.50;99.90;;;;;;6146193;23;20594;-81
2023/05/28 12:32:26;;;;;;;3.70;2.50;;;24.10;99.90;;;;;;6146430;23;20190;-84
2023/05/28 12:34:56;;;;;;;2.50;2.08;;;23.10;1.00;;;;;;6146014;23;20163;-85
2023/05/28 12:37:22;;;;;;;3.80;1.98;;;24.00;99.90;;;;;;6119953;23;20186;-81
2023/05/28 12:39:47;;;;;;;2.67;1.98;;;23.60;99.90;;;;;;6119525;23;20183;-82
2023/05/28 12:42:13;;;;;;;3.47;1.90;;;23.60;1.00;;;;;;6145748;23;20577;-81
2023/05/28 12:44:39;;;;;;;2.33;2.10;;;23.20;1.00;;;;;;6119680;23;20163;-81
2023/05/28 12:47:05;;;;;;;3.08;2.17;;;23.10;99.90;;;;;;6119168;23;20163;-84
2023/05/28 12:49:30;;;;;;;3.05;2.10;;;23.10;1.00;;;;;;6119093;23;20270;-81
2023/05/28 12:51:56;;;;;;;3.08;2.20;;;22.80;99.90;;;;;;6145175;23;20214;-81